createdAt,value
2023-03-22T00:01:32.357Z,30.15
2023-03-22T00:03:59.268Z,31.55
2023-03-22T00:06:26.577Z,31.73
2023-03-22T00:08:54.176Z,34.00
2023-03-22T00:11:22.581Z,35.03
2023-03-22T00:13:52.384Z,30.92
2023-03-22T00:16:19.638Z,32.45
2023-03-22T00:18:46.403Z,34.13
2023-03-22T00:21:15.301Z,34.47
2023-03-22T00:23:42.372Z,33.22
2023-03-22T00:26:10.901Z,33.35
2023-03-22T00:28:37.605Z,34.47
2023-03-22T00:31:05.838Z,31.60
2023-03-22T00:33:33.054Z,28.85
2023-03-22T00:36:05.553Z,35.90
2023-03-22T00:38:42.652Z,36.58
2023-03-22T00:41:14.318Z,35.47
2023-03-22T00:43:41.645Z,30.52
2023-03-22T00:46:09.833Z,32.20
2023-03-22T00:48:36.617Z,31.48
2023-03-22T00:51:04.007Z,32.88
2023-03-22T00:53:32.785Z,32.08
2023-03-22T00:55:59.916Z,33.72
2023-03-22T00:58:26.798Z,28.25
2023-03-22T01:00:53.640Z,29.90
2023-03-22T01:03:21.856Z,31.60
2023-03-22T01:05:49.346Z,32.08
2023-03-22T01:08:16.716Z,31.15
2023-03-22T01:10:44.445Z,35.92
2023-03-22T01:13:12.278Z,30.58
2023-03-22T01:15:38.993Z,34.78
2023-03-22T01:18:05.805Z,32.40
2023-03-22T01:20:32.504Z,35.22
2023-03-22T01:22:59.546Z,31.60
2023-03-22T01:25:26.323Z,34.65
2023-03-22T01:27:53.873Z,33.65
2023-03-22T01:30:20.682Z,34.60
2023-03-22T01:32:47.295Z,32.83
2023-03-22T01:35:13.939Z,32.63
2023-03-22T01:37:40.583Z,34.65
2023-03-22T01:40:08.004Z,36.53
2023-03-22T01:42:34.725Z,34.75
2023-03-22T01:45:38.186Z,38.83
2023-03-22T01:48:13.479Z,35.50
2023-03-22T01:50:44.017Z,36.28
2023-03-22T01:53:13.603Z,38.05
2023-03-22T01:55:41.410Z,35.88
2023-03-22T01:58:08.398Z,42.88
2023-03-22T02:00:36.027Z,35.90
2023-03-22T02:03:03.078Z,36.08
2023-03-22T02:05:30.931Z,37.22
2023-03-22T02:07:57.708Z,41.42
2023-03-22T02:10:27.043Z,40.65
2023-03-22T02:13:19.318Z,39.58
2023-03-22T02:16:12.668Z,38.13
2023-03-22T02:19:14.148Z,34.55
2023-03-22T02:22:21.965Z,42.35
2023-03-22T02:25:27.509Z,40.55
2023-03-22T02:28:11.998Z,39.20
2023-03-22T02:30:44.761Z,40.58
2023-03-22T02:33:20.316Z,49.08
2023-03-22T02:35:53.811Z,43.33
2023-03-22T02:38:33.593Z,36.50
2023-03-22T02:41:16.418Z,41.33
2023-03-22T02:44:02.153Z,36.92
2023-03-22T02:46:41.160Z,42.83
2023-03-22T02:49:41.417Z,44.78
2023-03-22T02:52:19.506Z,42.22
2023-03-22T02:55:05.010Z,34.40
2023-03-22T02:57:54.969Z,45.22
2023-03-22T03:00:21.688Z,42.58
2023-03-22T03:02:59.996Z,43.35
2023-03-22T03:05:30.836Z,39.58
2023-03-22T03:08:01.254Z,42.38
2023-03-22T03:10:28.467Z,44.30
2023-03-22T03:12:55.085Z,42.97
2023-03-22T03:15:23.615Z,38.42
2023-03-22T03:18:08.474Z,43.85
2023-03-22T03:21:10.073Z,39.47
2023-03-22T03:23:54.918Z,44.15
2023-03-22T03:26:37.256Z,45.10
2023-03-22T03:29:37.134Z,40.17
2023-03-22T03:32:35.473Z,42.25
2023-03-22T03:35:17.884Z,45.80
2023-03-22T03:37:50.005Z,46.50
2023-03-22T03:40:25.556Z,40.13
2023-03-22T03:42:54.209Z,43.35
2023-03-22T03:45:22.081Z,43.30
2023-03-22T03:47:56.838Z,42.85
2023-03-22T03:50:25.742Z,48.25
2023-03-22T03:52:54.429Z,40.30
2023-03-22T03:55:22.528Z,41.30
2023-03-22T03:57:49.352Z,46.00
2023-03-22T04:00:16.886Z,41.30
2023-03-22T04:02:44.137Z,43.45
2023-03-22T04:05:12.645Z,44.50
2023-03-22T04:07:39.854Z,49.50
2023-03-22T04:10:07.562Z,42.65
2023-03-22T04:12:34.395Z,53.78
2023-03-22T04:15:01.161Z,49.97
2023-03-22T04:17:32.016Z,45.95
2023-03-22T04:19:58.755Z,49.60
2023-03-22T04:22:26.571Z,47.05
2023-03-22T04:24:53.192Z,49.05
2023-03-22T04:27:22.295Z,45.35
2023-03-22T04:29:50.789Z,48.85
2023-03-22T04:32:18.921Z,46.33
2023-03-22T04:34:46.399Z,52.72
2023-03-22T04:37:14.314Z,45.78
2023-03-22T04:39:41.112Z,48.72
2023-03-22T04:42:08.175Z,48.83
2023-03-22T04:44:35.517Z,52.10
2023-03-22T04:47:02.487Z,54.58
2023-03-22T04:49:29.250Z,51.95
2023-03-22T04:51:56.796Z,53.28
2023-03-22T04:54:24.322Z,47.20
2023-03-22T04:56:51.200Z,53.13
2023-03-22T04:59:20.187Z,48.15
2023-03-22T05:01:48.274Z,42.00
2023-03-22T05:04:16.363Z,53.67
2023-03-22T05:06:43.118Z,51.22
2023-03-22T05:09:10.651Z,52.03
2023-03-22T05:11:37.491Z,55.30
2023-03-22T05:14:04.631Z,49.78
2023-03-22T05:16:31.438Z,55.83
2023-03-22T05:18:58.226Z,55.55
2023-03-22T05:21:28.510Z,50.03
2023-03-22T05:23:57.120Z,55.17
2023-03-22T05:26:26.319Z,53.70
2023-03-22T05:28:54.290Z,50.30
2023-03-22T05:31:22.663Z,49.78
2023-03-22T05:33:50.459Z,46.38
2023-03-22T05:36:19.105Z,45.40
2023-03-22T05:38:46.539Z,44.72
2023-03-22T05:41:14.208Z,41.63
2023-03-22T05:43:41.370Z,44.67
2023-03-22T05:46:10.263Z,45.65
2023-03-22T05:48:38.118Z,46.50
2023-03-22T05:51:17.434Z,47.20
2023-03-22T05:53:45.341Z,49.35
2023-03-22T05:56:12.899Z,50.92
2023-03-22T05:58:41.094Z,47.30
2023-03-22T06:01:10.919Z,50.78
2023-03-22T06:03:38.775Z,49.75
2023-03-22T06:06:10.593Z,50.95
2023-03-22T06:08:39.481Z,48.88
2023-03-22T06:11:07.137Z,52.92
2023-03-22T06:13:33.997Z,52.60
2023-03-22T06:16:02.852Z,55.45
2023-03-22T06:18:30.324Z,57.22
2023-03-22T06:20:57.356Z,58.92
2023-03-22T06:23:24.210Z,55.17
2023-03-22T06:25:50.973Z,57.33
2023-03-22T06:28:17.637Z,54.70
2023-03-22T06:30:44.245Z,55.78
2023-03-22T06:33:10.986Z,54.05
2023-03-22T06:35:37.759Z,55.00
2023-03-22T06:38:04.520Z,53.55
2023-03-22T06:40:31.208Z,57.67
2023-03-22T06:42:57.830Z,56.47
2023-03-22T06:45:24.603Z,55.78
2023-03-22T06:47:51.272Z,58.45
2023-03-22T06:50:18.055Z,55.45
2023-03-22T06:52:44.689Z,57.22
2023-03-22T06:55:11.378Z,52.80
2023-03-22T06:57:38.055Z,52.15
2023-03-22T07:00:05.484Z,48.33
2023-03-22T07:02:32.169Z,45.10
2023-03-22T07:04:58.821Z,50.90
2023-03-22T07:07:25.754Z,46.10
2023-03-22T07:09:53.303Z,48.85
2023-03-22T07:12:19.965Z,49.20
2023-03-22T07:14:46.777Z,51.85
2023-03-22T07:17:14.140Z,38.75
2023-03-22T07:19:42.627Z,45.60
2023-03-22T07:22:09.359Z,45.05
2023-03-22T07:24:40.358Z,41.35
2023-03-22T07:27:11.455Z,43.85
2023-03-22T07:29:38.073Z,33.90
2023-03-22T07:32:05.463Z,30.23
2023-03-22T07:34:32.142Z,34.97
2023-03-22T07:36:58.803Z,26.50
2023-03-22T07:39:25.803Z,27.33
2023-03-22T07:41:52.590Z,25.95
2023-03-22T07:44:19.296Z,25.85
2023-03-22T07:46:46.017Z,24.35
2023-03-22T07:49:12.861Z,24.63
2023-03-22T07:51:39.500Z,21.98
2023-03-22T07:54:07.867Z,21.38
2023-03-22T07:56:34.906Z,20.60
2023-03-22T07:59:01.773Z,19.80
2023-03-22T08:01:28.541Z,20.45
2023-03-22T08:03:55.237Z,21.15
2023-03-22T08:06:21.939Z,22.55
2023-03-22T08:08:48.624Z,19.63
2023-03-22T08:11:15.601Z,19.05
2023-03-22T08:13:42.268Z,20.48
2023-03-22T08:16:09.043Z,19.60
2023-03-22T08:18:36.054Z,18.45
2023-03-22T08:21:02.788Z,19.25
2023-03-22T08:23:40.990Z,21.08
2023-03-22T08:26:09.569Z,20.27
2023-03-22T08:28:36.493Z,18.05
2023-03-22T08:31:13.252Z,17.70
2023-03-22T08:33:40.969Z,18.90
2023-03-22T08:36:11.030Z,17.10
2023-03-22T08:38:37.930Z,15.73
2023-03-22T08:41:05.008Z,15.77
2023-03-22T08:43:31.679Z,14.95
2023-03-22T08:45:58.896Z,14.82
2023-03-22T08:48:27.965Z,10.88
2023-03-22T08:50:54.770Z,16.15
2023-03-22T08:53:21.389Z,14.93
2023-03-22T08:55:48.408Z,11.98
2023-03-22T08:58:16.627Z,14.00
2023-03-22T09:00:48.914Z,16.25
2023-03-22T09:03:16.802Z,13.07
2023-03-22T09:05:43.632Z,14.43
2023-03-22T09:08:19.148Z,15.13
2023-03-22T09:10:51.306Z,15.30
2023-03-22T09:13:18.401Z,14.27
2023-03-22T09:15:45.340Z,12.70
2023-03-22T09:18:12.162Z,12.95
2023-03-22T09:20:40.052Z,12.35
2023-03-22T09:23:08.127Z,12.52
2023-03-22T09:25:34.841Z,12.05
2023-03-22T09:28:02.258Z,11.18
2023-03-22T09:30:28.928Z,11.93
2023-03-22T09:32:55.688Z,9.90
2023-03-22T09:35:22.600Z,10.95
2023-03-22T09:37:49.531Z,10.02
2023-03-22T09:40:17.883Z,14.07
2023-03-22T09:42:48.236Z,10.00
2023-03-22T09:45:30.705Z,10.98
2023-03-22T09:47:58.755Z,10.13
2023-03-22T09:50:31.291Z,14.20
2023-03-22T09:52:59.842Z,11.05
2023-03-22T09:55:55.699Z,12.73
2023-03-22T09:58:26.150Z,8.45
2023-03-22T10:01:37.325Z,9.88
2023-03-22T10:04:29.290Z,11.57
2023-03-22T10:07:06.863Z,9.75
2023-03-22T10:09:37.164Z,10.82
2023-03-22T10:12:26.746Z,10.63
2023-03-22T10:15:19.888Z,10.50
2023-03-22T10:17:52.160Z,10.00
2023-03-22T10:22:53.416Z,8.25
2023-03-22T10:25:27.846Z,8.35
2023-03-22T10:27:54.659Z,10.85
2023-03-22T10:30:26.047Z,8.18
2023-03-22T10:33:01.083Z,11.48
2023-03-22T10:35:29.587Z,8.45
2023-03-22T10:38:00.446Z,8.10
2023-03-22T10:40:31.806Z,7.28
2023-03-22T10:43:07.704Z,7.90
2023-03-22T10:45:36.095Z,6.32
2023-03-22T10:48:07.384Z,7.88
2023-03-22T10:50:38.052Z,4.88
2023-03-22T10:53:12.224Z,8.07
2023-03-22T10:55:43.988Z,6.15
2023-03-22T10:58:14.036Z,5.90
2023-03-22T11:00:45.014Z,7.45
2023-03-22T11:03:31.947Z,6.47
2023-03-22T11:06:16.101Z,9.13
2023-03-22T11:08:46.474Z,5.75
2023-03-22T11:11:17.471Z,6.72
2023-03-22T11:13:51.145Z,5.70
2023-03-22T11:16:18.830Z,7.85
2023-03-22T11:18:45.699Z,6.40
2023-03-22T11:21:16.581Z,6.60
2023-03-22T11:23:52.256Z,6.88
2023-03-22T11:26:27.695Z,5.47
2023-03-22T11:29:06.732Z,7.35
2023-03-22T11:32:03.275Z,7.13
2023-03-22T11:34:31.589Z,4.93
2023-03-22T11:37:01.447Z,4.97
2023-03-22T11:39:30.074Z,4.78
2023-03-22T11:42:01.912Z,4.90
2023-03-22T11:44:34.019Z,4.35
2023-03-22T11:47:02.581Z,5.75
2023-03-22T11:49:44.307Z,6.40
2023-03-22T11:52:24.240Z,5.45
2023-03-22T11:54:51.939Z,7.28
2023-03-22T11:57:25.806Z,5.35
2023-03-22T12:00:19.885Z,4.72
2023-03-22T12:03:14.028Z,4.55
2023-03-22T12:05:44.407Z,4.63
2023-03-22T12:08:42.747Z,2.90
2023-03-22T12:11:15.978Z,5.35
2023-03-22T12:13:54.478Z,4.45
2023-03-22T12:16:37.903Z,6.40
2023-03-22T12:19:29.968Z,2.45
2023-03-22T12:21:58.804Z,4.95
2023-03-22T12:24:31.997Z,5.97
2023-03-22T12:27:03.578Z,4.22
2023-03-22T12:29:31.722Z,3.80
2023-03-22T12:32:03.584Z,3.20
2023-03-22T12:34:40.848Z,6.05
2023-03-22T12:37:13.889Z,5.32
2023-03-22T12:39:49.731Z,2.67
2023-03-22T12:42:30.799Z,2.95
2023-03-22T12:45:05.739Z,4.53
2023-03-22T12:47:44.056Z,6.35
2023-03-22T12:50:26.210Z,2.97
2023-03-22T12:52:57.263Z,3.88
2023-03-22T12:55:39.391Z,2.58
2023-03-22T12:58:07.830Z,6.50
2023-03-22T13:00:42.380Z,2.60
2023-03-22T13:03:18.651Z,4.32
2023-03-22T13:05:48.175Z,4.43
2023-03-22T13:08:22.440Z,5.15
2023-03-22T13:11:03.942Z,3.78
2023-03-22T13:13:42.815Z,4.07
2023-03-22T13:16:09.541Z,3.80
2023-03-22T13:18:36.363Z,5.63
2023-03-22T13:21:21.463Z,3.17
2023-03-22T13:24:12.996Z,5.40
2023-03-22T13:26:47.545Z,3.92
2023-03-22T13:29:41.898Z,2.38
2023-03-22T13:32:33.365Z,2.58
2023-03-22T13:35:00.808Z,3.17
2023-03-22T13:37:44.427Z,2.88
2023-03-22T13:40:53.245Z,3.22
2023-03-22T13:43:47.363Z,3.88
2023-03-22T13:46:24.447Z,4.68
2023-03-22T13:49:12.679Z,2.03
2023-03-22T13:51:40.349Z,5.50
2023-03-22T13:54:07.574Z,2.90
2023-03-22T13:57:03.766Z,3.45
2023-03-22T14:00:06.866Z,3.13
2023-03-22T14:02:42.199Z,3.63
2023-03-22T14:05:14.575Z,3.60
2023-03-22T14:07:50.802Z,2.05
2023-03-22T14:10:38.007Z,2.38
2023-03-22T14:13:30.781Z,3.30
2023-03-22T14:16:04.563Z,2.80
2023-03-22T14:18:34.356Z,3.33
2023-03-22T14:21:06.810Z,6.60
